Pettibone, Texas
Current Conditions -  °F | °C
As of 7:35 PM on Wednesday 22 Oct 2014 (Local Time) from KT35 Reporting Station
Clear Clear  
Wind Chill: 72°   Ceiling: Unl
Heat Index: 72°   Visibility: 10mi
Dew Point: 60°   Wind: 0mph
Humidity: 67%   Direction: NA
Pressure: 30.08"   Gusts: NA
Location:  30.8332°N, 96.9826°W
Report Text: KT35 230035Z AUTO 00000KT 10SM CLR 22/16 A3008 RMK AO2 T02210157
Loading
Personal Weather Stations






























Interactive Weather Map
Tropical Storm Tracking
New forecast layout! Learn more

10-Day Weather Forecast

Advertisements
Track Severe Weather on mobile